Time;durP1;ratioP1;P1;durP2;ratioP2;P2;SDS_P1;SDS_P2;PMS_P1;PMS_P2;Temp;Humidity;BMP_temperature;BMP_pressure;BME280_temperature;BME280_humidity;BME280_pressure;Samples;Min_cycle;Max_cycle;Signal;HPM_P1;HPM_P2
2021/10/26 00:01:05;;;;;;;4.28;2.00;;;;;;;1.59;74.48;100260.41;4912845;29;20040;-54
2021/10/26 00:03:31;;;;;;;3.10;1.63;;;;;;;1.57;74.86;100254.44;4913431;29;20043;-51
2021/10/26 00:05:57;;;;;;;3.25;2.00;;;;;;;1.56;75.03;100265.53;4921455;29;20036;-51
2021/10/26 00:08:22;;;;;;;4.88;2.53;;;;;;;1.56;74.67;100251.00;4915425;29;20186;-54
2021/10/26 00:10:48;;;;;;;3.30;1.73;;;;;;;1.60;74.78;100251.91;4914095;29;20043;-55
2021/10/26 00:13:14;;;;;;;4.78;2.10;;;;;;;1.57;75.02;100250.13;4912916;29;20205;-55
2021/10/26 00:15:41;;;;;;;5.68;1.67;;;;;;;1.56;75.42;100253.56;4927120;29;20051;-52
2021/10/26 00:18:07;;;;;;;4.75;1.83;;;;;;;1.46;75.30;100222.72;4913704;29;20138;-51
2021/10/26 00:20:33;;;;;;;7.38;2.60;;;;;;;1.56;75.28;100247.59;4927124;29;20092;-55
2021/10/26 00:22:59;;;;;;;4.95;2.45;;;;;;;1.53;75.77;100244.97;4913387;29;20126;-51
2021/10/26 00:25:26;;;;;;;2.58;1.45;;;;;;;1.52;75.52;100243.25;4913506;29;20055;-55
2021/10/26 00:27:51;;;;;;;2.97;1.33;;;;;;;1.52;75.76;100241.53;4913597;29;20071;-51
2021/10/26 00:30:17;;;;;;;3.42;1.40;;;;;;;1.51;76.02;100241.56;4926642;29;20111;-52
2021/10/26 00:32:43;;;;;;;2.90;1.70;;;;;;;1.51;75.90;100239.84;4913204;29;20064;-51
2021/10/26 00:35:09;;;;;;;3.25;1.75;;;;;;;1.50;76.44;100234.69;4906263;29;20648;-53
2021/10/26 00:37:36;;;;;;;3.97;1.70;;;;;;;1.47;76.51;100235.50;4897527;29;20529;-53
2021/10/26 00:40:07;;;;;;;6.05;2.40;;;;;;;1.47;76.92;100232.94;4924392;29;20211;-53
2021/10/26 00:42:33;;;;;;;2.95;1.80;;;;;;;1.46;76.80;100238.94;4907247;29;20058;-50
2021/10/26 00:44:59;;;;;;;4.13;2.13;;;;;;;1.27;76.99;100211.38;4902303;29;20052;-53
2021/10/26 00:47:25;;;;;;;3.80;1.92;;;;;;;1.46;76.86;100238.94;4911871;29;20052;-51
2021/10/26 00:49:50;;;;;;;4.22;2.50;;;;;;;1.44;76.94;100242.31;4924299;29;20048;-52
2021/10/26 00:52:17;;;;;;;3.13;2.20;;;;;;;1.42;77.48;100236.31;4913558;29;20044;-51
2021/10/26 00:54:45;;;;;;;3.42;1.90;;;;;;;1.36;77.58;100226.00;4914290;29;20043;-49
2021/10/26 00:57:11;;;;;;;2.40;1.52;;;;;;;1.43;77.65;100230.34;4911988;29;20415;-51
2021/10/26 00:59:38;;;;;;;4.70;2.22;;;;;;;1.34;77.68;100213.19;4912647;29;20151;-51
2021/10/26 01:02:04;;;;;;;3.85;1.92;;;;;;;1.44;77.78;100221.81;4916282;29;20521;-53
2021/10/26 01:04:30;;;;;;;3.25;2.05;;;;;;;1.40;78.01;100217.50;4920572;29;20074;-51
2021/10/26 01:06:57;;;;;;;4.63;2.38;;;;;;;1.42;78.00;100215.81;4913913;29;20095;-49
2021/10/26 01:09:25;;;;;;;4.20;2.30;;;;;;;1.41;77.97;100211.56;4881016;29;20044;-50
2021/10/26 01:11:52;;;;;;;3.65;1.95;;;;;;;1.21;78.30;100181.44;4914052;29;20291;-50
2021/10/26 01:14:18;;;;;;;3.92;2.33;;;;;;;1.39;78.29;100205.53;4927207;29;20051;-52
2021/10/26 01:16:44;;;;;;;5.38;2.67;;;;;;;1.39;78.94;100210.66;4911733;29;20051;-53
2021/10/26 01:19:15;;;;;;;4.07;2.17;;;;;;;1.38;78.84;100201.25;4893998;29;20058;-54
2021/10/26 01:21:41;;;;;;;2.83;1.67;;;;;;;1.38;78.86;100202.13;4915315;29;20048;-52
2021/10/26 01:24:07;;;;;;;5.40;2.92;;;;;;;1.38;78.89;100196.13;4900684;29;20127;-51
2021/10/26 01:26:35;;;;;;;4.35;1.88;;;;;;;1.37;79.16;100197.84;4927163;29;20055;-52
2021/10/26 01:29:01;;;;;;;5.88;2.60;;;;;;;1.37;79.31;100204.66;4918909;29;20039;-55
2021/10/26 01:31:32;;;;;;;4.80;2.45;;;;;;;1.36;79.11;100197.84;4914286;29;20598;-50
2021/10/26 01:34:11;;;;;;;3.70;2.22;;;;;;;1.26;79.16;100169.53;4919109;29;20092;-51
2021/10/26 01:36:38;;;;;;;2.97;1.77;;;;;;;1.34;79.88;100190.13;4929834;29;20071;-51
2021/10/26 01:39:04;;;;;;;4.40;2.00;;;;;;;1.35;79.81;100191.00;4893365;29;20173;-51
2021/10/26 01:41:34;;;;;;;7.95;2.95;;;;;;;1.33;79.89;100177.28;4905962;29;20059;-55
2021/10/26 01:43:59;;;;;;;4.47;2.25;;;;;;;1.35;79.83;100183.31;4911112;29;20087;-52
2021/10/26 01:46:25;;;;;;;4.15;2.15;;;;;;;1.35;79.76;100181.59;4917386;29;20044;-50
2021/10/26 01:48:54;;;;;;;2.17;1.50;;;;;;;1.34;80.59;100186.69;4908063;29;20300;-54
2021/10/26 01:51:19;;;;;;;4.55;2.47;;;;;;;1.36;80.15;100165.38;4926301;29;20146;-52
2021/10/26 01:53:45;;;;;;;5.32;2.20;;;;;;;1.38;80.63;100162.84;4919456;29;20048;-53
2021/10/26 01:56:14;;;;;;;2.72;1.67;;;;;;;1.36;80.63;100175.63;4890229;29;20163;-53
2021/10/26 01:59:03;;;;;;;;;;;;;;;1.40;80.42;100156.03;4921329;29;20111;-53
2021/10/26 02:01:43;;;;;;;4.65;1.88;;;;;;;1.41;80.50;100160.31;4916441;29;19926;-51
2021/10/26 02:04:21;;;;;;;5.95;2.35;;;;;;;1.42;79.99;100162.88;4917932;29;20044;-50
2021/10/26 02:06:48;;;;;;;3.53;1.95;;;;;;;1.41;80.31;100168.00;4896574;29;20547;-52
2021/10/26 02:09:13;;;;;;;5.88;2.40;;;;;;;1.43;80.91;100158.59;4920334;29;20612;-55
2021/10/26 02:11:40;;;;;;;4.22;2.42;;;;;;;1.30;80.57;100138.84;4914671;29;20044;-54
2021/10/26 02:14:06;;;;;;;4.18;2.28;;;;;;;1.44;80.80;100148.38;4914739;29;20048;-54
2021/10/26 02:16:32;;;;;;;6.70;2.33;;;;;;;1.43;80.83;100162.03;4917970;29;20047;-56
2021/10/26 02:18:58;;;;;;;4.18;1.83;;;;;;;1.30;81.29;100144.84;4907077;29;20604;-52
2021/10/26 02:21:24;;;;;;;2.90;1.40;;;;;;;1.40;81.50;100149.22;4916406;29;20134;-49
2021/10/26 02:23:50;;;;;;;5.47;2.10;;;;;;;1.39;81.52;100138.94;4929978;29;20516;-54
2021/10/26 02:26:16;;;;;;;4.75;2.42;;;;;;;1.40;81.34;100148.34;4917328;29;20052;-55
2021/10/26 02:28:46;;;;;;;4.07;2.38;;;;;;;1.34;81.52;100141.47;4912144;29;20543;-52
2021/10/26 02:31:12;;;;;;;6.07;2.25;;;;;;;1.39;81.40;100133.81;4922124;29;20059;-51
2021/10/26 02:33:38;;;;;;;4.50;1.92;;;;;;;1.38;81.45;100129.53;4926021;29;20575;-51
2021/10/26 02:36:04;;;;;;;3.47;1.98;;;;;;;1.39;81.66;100131.25;4905122;29;20505;-51
2021/10/26 02:38:30;;;;;;;4.13;2.47;;;;;;;1.30;81.67;100114.09;4913652;29;20522;-51
2021/10/26 02:40:57;;;;;;;3.03;1.38;;;;;;;1.38;82.03;100115.03;4898810;29;20438;-54
2021/10/26 02:43:25;;;;;;;4.13;2.30;;;;;;;1.36;82.03;100121.81;4916993;29;20055;-54
2021/10/26 02:45:52;;;;;;;5.13;2.40;;;;;;;1.34;82.27;100120.97;4913931;29;20135;-51
2021/10/26 02:48:18;;;;;;;4.07;2.00;;;;;;;1.33;82.13;100115.81;4914486;29;20044;-52
2021/10/26 02:50:44;;;;;;;2.78;1.15;;;;;;;1.33;82.37;100115.81;4915896;29;20040;-53
2021/10/26 02:53:10;;;;;;;4.43;2.13;;;;;;;1.31;82.32;100118.34;4914525;29;20052;-55
2021/10/26 02:55:36;;;;;;;4.40;2.55;;;;;;;1.33;82.59;100110.69;4918738;29;20048;-53
2021/10/26 02:58:01;;;;;;;1.90;1.50;;;;;;;1.32;82.74;100119.22;4906088;29;20132;-50
2021/10/26 03:00:28;;;;;;;3.65;2.10;;;;;;;1.32;82.67;100114.09;4914407;29;20040;-55
2021/10/26 03:02:59;;;;;;;4.85;2.78;;;;;;;1.32;82.85;100102.16;4910819;29;20054;-52
2021/10/26 03:05:26;;;;;;;5.65;2.53;;;;;;;1.27;82.74;100097.00;4912336;29;20063;-52
2021/10/26 03:07:53;;;;;;;5.93;2.20;;;;;;;1.33;83.20;100108.13;4924109;29;20127;-51
2021/10/26 03:10:21;;;;;;;4.70;2.17;;;;;;;1.32;83.09;100114.97;4896432;29;20040;-51
2021/10/26 03:12:46;;;;;;;5.55;2.55;;;;;;;1.33;83.01;100105.56;4921896;29;20103;-48
2021/10/26 03:15:13;;;;;;;5.88;2.50;;;;;;;1.34;83.42;100113.28;4918425;29;20051;-52
2021/10/26 03:17:39;;;;;;;5.75;2.60;;;;;;;1.27;83.20;100098.69;4912735;29;20047;-51
2021/10/26 03:20:19;;;;;;;4.60;2.30;;;;;;;1.33;83.47;100121.81;4912573;29;20433;-52
2021/10/26 03:22:45;;;;;;;5.95;2.60;;;;;;;1.35;83.36;100109.03;4913087;29;20115;-51
2021/10/26 03:25:11;;;;;;;6.00;2.25;;;;;;;1.34;83.15;100107.31;4915832;29;20040;-51
2021/10/26 03:27:37;;;;;;;7.53;3.05;;;;;;;1.34;83.26;100112.41;4913239;29;20072;-51
2021/10/26 03:30:06;;;;;;;5.25;2.28;;;;;;;1.32;83.84;100107.28;4902041;29;20440;-52
2021/10/26 03:32:35;;;;;;;4.97;2.60;;;;;;;1.34;83.47;100107.31;4913209;29;20501;-52
2021/10/26 03:35:20;;;;;;;5.28;2.45;;;;;;;1.33;83.55;100103.88;4914098;29;20076;-49
2021/10/26 03:37:48;;;;;;;6.43;2.60;;;;;;;1.34;83.63;100091.94;4915503;29;20461;-55
2021/10/26 03:40:15;;;;;;;5.25;2.10;;;;;;;1.25;83.64;100088.47;4913841;29;20504;-50
2021/10/26 03:42:41;;;;;;;3.53;1.95;;;;;;;1.25;83.70;100083.34;4896307;29;20048;-53
2021/10/26 03:45:07;;;;;;;4.47;2.00;;;;;;;1.32;83.90;100083.38;4896454;29;20048;-52
2021/10/26 03:47:39;;;;;;;7.60;2.63;;;;;;;1.32;83.61;100080.81;4896345;29;20044;-53
2021/10/26 03:50:07;;;;;;;7.47;2.83;;;;;;;1.34;83.49;100079.97;4927746;29;20055;-54
2021/10/26 03:52:33;;;;;;;7.95;3.38;;;;;;;1.31;83.60;100092.75;4922393;29;20059;-53
2021/10/26 03:54:59;;;;;;;5.80;2.65;;;;;;;1.31;83.66;100089.34;4927055;29;20456;-53
2021/10/26 03:57:25;;;;;;;6.07;2.75;;;;;;;1.29;83.86;100084.22;4900410;29;20055;-53
2021/10/26 03:59:52;;;;;;;5.13;2.45;;;;;;;1.20;84.25;100067.03;4894864;29;20036;-54
2021/10/26 04:02:25;;;;;;;5.13;2.30;;;;;;;1.32;84.24;100088.47;4910921;29;20135;-54
2021/10/26 04:04:53;;;;;;;10.70;3.40;;;;;;;1.30;84.18;100083.38;4913023;29;20048;-53
2021/10/26 04:07:20;;;;;;;11.48;3.50;;;;;;;1.30;83.95;100079.94;4912550;29;20047;-49
2021/10/26 04:10:07;;;;;;;6.35;2.17;;;;;;;1.34;83.67;100087.66;4926547;29;20171;-49
2021/10/26 04:12:35;;;;;;;4.95;2.00;;;;;;;1.33;83.95;100085.09;4910826;29;20051;-50
2021/10/26 04:15:03;;;;;;;5.88;2.55;;;;;;;1.34;83.86;100076.56;4926243;29;20101;-50
2021/10/26 04:17:34;;;;;;;9.20;3.30;;;;;;;1.34;83.73;100074.88;4889489;29;20044;-53
2021/10/26 04:20:01;;;;;;;7.07;3.22;;;;;;;1.36;83.89;100072.31;4891414;29;20043;-52
2021/10/26 04:22:29;;;;;;;11.13;3.07;;;;;;;1.37;83.83;100074.88;4913361;29;20051;-54
2021/10/26 04:24:55;;;;;;;8.73;2.67;;;;;;;1.37;83.98;100071.47;4919797;29;20060;-51
2021/10/26 04:27:24;;;;;;;7.07;3.90;;;;;;;1.35;84.01;100062.91;4903214;29;20059;-54
2021/10/26 04:29:51;;;;;;;9.10;3.10;;;;;;;1.38;84.19;100065.50;4894656;29;20102;-52
2021/10/26 04:32:17;;;;;;;9.15;2.30;;;;;;;1.27;84.16;100050.03;4912652;29;20036;-55
2021/10/26 04:34:49;;;;;;;7.80;3.33;;;;;;;1.37;84.19;100062.06;4918508;29;20521;-56
2021/10/26 04:37:16;;;;;;;7.93;3.35;;;;;;;1.29;83.89;100050.91;4903741;29;20481;-56
2021/10/26 04:39:43;;;;;;;8.98;3.58;;;;;;;1.40;83.47;100067.25;4918519;29;20059;-55
2021/10/26 04:42:09;;;;;;;7.85;3.22;;;;;;;1.24;83.63;100035.50;4919819;29;20048;-50
2021/10/26 04:44:38;;;;;;;6.43;2.97;;;;;;;1.42;83.45;100086.03;4893393;29;20539;-52
2021/10/26 04:47:04;;;;;;;6.00;3.53;;;;;;;1.43;83.43;100067.25;4908366;29;20056;-49
2021/10/26 04:49:30;;;;;;;5.53;3.33;;;;;;;1.42;83.03;100057.84;4918280;29;20131;-52
2021/10/26 04:51:56;;;;;;;8.68;3.50;;;;;;;1.50;82.79;100061.34;4913330;29;20119;-49
2021/10/26 04:54:22;;;;;;;4.68;2.15;;;;;;;1.53;82.58;100065.63;4911733;29;20143;-55
2021/10/26 04:57:00;;;;;;;10.75;2.72;;;;;;;1.45;82.05;100041.66;4901637;29;20036;-52
2021/10/26 04:59:34;;;;;;;3.85;2.03;;;;;;;1.65;81.96;100053.78;4913491;29;20131;-53
2021/10/26 05:02:01;;;;;;;6.30;2.20;;;;;;;1.74;81.29;100055.53;4918063;29;20040;-52
2021/10/26 05:04:28;;;;;;;8.63;3.30;;;;;;;1.77;80.82;100050.44;4921924;29;20044;-53
2021/10/26 05:06:54;;;;;;;9.27;3.55;;;;;;;1.71;80.72;100032.47;4912054;29;20055;-52
2021/10/26 05:09:21;;;;;;;7.35;3.10;;;;;;;1.83;79.98;100054.75;4910308;29;20127;-53
2021/10/26 05:11:47;;;;;;;3.25;2.00;;;;;;;2.03;79.54;100050.59;4928883;29;20420;-51
2021/10/26 05:14:14;;;;;;;6.35;2.60;;;;;;;2.22;78.51;100061.81;4918216;29;20056;-51
2021/10/26 05:16:58;;;;;;;8.90;2.88;;;;;;;2.29;77.59;100050.75;4924106;29;20598;-52
2021/10/26 05:19:44;;;;;;;7.65;3.47;;;;;;;2.34;77.17;100046.50;4921911;29;20051;-54
2021/10/26 05:22:30;;;;;;;12.52;2.58;;;;;;;2.41;76.58;100050.78;4915512;29;20044;-55
2021/10/26 05:25:22;;;;;;;6.40;2.67;;;;;;;2.43;76.41;100044.81;4913757;29;20052;-53
2021/10/26 05:28:06;;;;;;;8.77;3.13;;;;;;;2.64;75.60;100046.59;4917661;29;20455;-54
2021/10/26 05:30:32;;;;;;;15.50;3.78;;;;;;;2.88;74.56;100050.94;4911305;29;20055;-54
2021/10/26 05:32:58;;;;;;;18.88;4.78;;;;;;;2.83;73.60;100034.66;4915132;29;20213;-56
2021/10/26 05:35:24;;;;;;;6.65;2.42;;;;;;;3.02;73.18;100046.72;4915509;29;20161;-49
2021/10/26 05:37:50;;;;;;;6.13;3.17;;;;;;;3.07;73.17;100054.41;4887878;29;20055;-55
2021/10/26 05:40:16;;;;;;;5.32;2.42;;;;;;;3.16;72.42;100046.72;4915929;29;20139;-50
2021/10/26 05:42:42;;;;;;;8.52;3.85;;;;;;;3.30;71.58;100058.72;4915699;29;20501;-54
2021/10/26 05:45:08;;;;;;;8.00;2.53;;;;;;;3.49;70.79;100053.59;4915252;29;20052;-50
2021/10/26 05:47:35;;;;;;;5.65;2.35;;;;;;;3.83;68.82;100052.72;4903961;29;20040;-52
2021/10/26 05:50:01;;;;;;;5.60;2.28;;;;;;;4.02;68.40;100051.84;4913864;29;20544;-47
2021/10/26 05:52:28;;;;;;;5.10;2.13;;;;;;;3.96;67.76;100025.25;4899648;29;20428;-49
2021/10/26 05:54:54;;;;;;;5.28;2.40;;;;;;;4.10;67.02;100050.09;4898317;29;20079;-55
2021/10/26 05:57:20;;;;;;;5.15;2.38;;;;;;;4.17;66.72;100035.50;4924314;29;20075;-52
2021/10/26 05:59:47;;;;;;;7.13;2.80;;;;;;;4.31;66.68;100051.75;4912574;29;20052;-55
2021/10/26 06:02:13;;;;;;;10.75;2.83;;;;;;;4.31;66.10;100051.75;4912217;29;20132;-53
2021/10/26 06:04:39;;;;;;;11.05;3.30;;;;;;;4.33;66.56;100051.75;4912652;29;20134;-55
2021/10/26 06:07:04;;;;;;;3.90;2.60;;;;;;;4.33;65.52;100057.75;4899091;29;20041;-55
2021/10/26 06:09:33;;;;;;;4.95;1.98;;;;;;;4.50;65.02;100055.13;4899120;29;20246;-55
2021/10/26 06:12:03;;;;;;;7.47;2.92;;;;;;;4.41;64.98;100016.53;4927316;29;20044;-52
2021/10/26 06:14:31;;;;;;;5.72;2.70;;;;;;;4.82;64.68;100040.34;4926806;29;20072;-50
2021/10/26 06:17:01;;;;;;;5.07;2.00;;;;;;;5.07;62.63;100033.38;4911798;29;20172;-53
2021/10/26 06:19:27;;;;;;;6.50;2.50;;;;;;;5.60;61.29;100039.84;4910055;29;20043;-52
2021/10/26 06:21:53;;;;;;;4.63;2.45;;;;;;;5.84;60.36;100045.63;4915272;29;20048;-50
2021/10/26 06:24:21;;;;;;;7.07;2.85;;;;;;;5.97;59.54;100034.31;4898740;29;20044;-52
2021/10/26 06:26:46;;;;;;;6.30;2.85;;;;;;;6.12;58.91;100042.81;4914493;29;20075;-53
2021/10/26 06:29:12;;;;;;;6.72;3.20;;;;;;;6.67;57.95;100033.53;4914221;29;20148;-54
2021/10/26 06:31:57;;;;;;;7.07;3.20;;;;;;;7.61;55.44;100015.72;4913455;29;20047;-56
2021/10/26 06:34:23;;;;;;;6.22;3.33;;;;;;;8.75;53.07;100014.38;4900557;29;20060;-53
2021/10/26 06:36:49;;;;;;;4.97;2.42;;;;;;;9.24;50.28;100013.28;4913392;29;20135;-53
2021/10/26 06:39:20;;;;;;;6.57;3.28;;;;;;;9.68;49.25;100017.41;4897424;29;20047;-55
2021/10/26 06:41:47;;;;;;;7.68;3.67;;;;;;;9.74;49.12;100010.28;4898425;29;20052;-55
2021/10/26 06:44:31;;;;;;;10.15;4.07;;;;;;;10.20;48.35;100017.72;4911907;29;20123;-57
2021/10/26 06:47:18;;;;;;;8.13;3.15;;;;;;;9.52;48.13;100021.28;4912765;29;20066;-59
2021/10/26 06:50:13;;;;;;;7.82;3.00;;;;;;;9.05;49.23;100028.44;4905202;29;20164;-57
2021/10/26 06:52:57;;;;;;;4.53;2.50;;;;;;;8.92;49.37;100019.22;4912733;29;20055;-56
2021/10/26 06:55:43;;;;;;;10.05;3.75;;;;;;;8.50;50.08;100019.25;4913760;29;20076;-54
2021/10/26 06:58:27;;;;;;;4.78;2.80;;;;;;;8.79;49.87;100017.78;4914094;29;20473;-54
2021/10/26 07:01:28;;;;;;;5.75;2.45;;;;;;;8.29;50.46;100013.59;4897445;29;20040;-51
2021/10/26 07:04:03;;;;;;;6.10;3.65;;;;;;;8.23;51.27;100013.72;4913858;29;20056;-54
2021/10/26 07:07:01;;;;;;;7.40;2.78;;;;;;;8.62;50.22;100002.59;4912242;29;20047;-57
2021/10/26 07:09:47;;;;;;;6.18;3.13;;;;;;;8.86;49.63;100012.41;4896856;29;20052;-59
2021/10/26 07:12:40;;;;;;;8.40;2.95;;;;;;;8.46;50.36;100001.22;4911811;29;20139;-53
2021/10/26 07:15:08;;;;;;;5.72;3.42;;;;;;;8.58;49.96;99997.50;4913498;29;20416;-55
2021/10/26 07:17:35;;;;;;;3.35;2.00;;;;;;;8.50;49.89;99988.16;4915264;29;20072;-57
2021/10/26 07:20:04;;;;;;;6.57;3.28;;;;;;;8.65;50.02;100004.25;4891755;29;20040;-56
2021/10/26 07:22:30;;;;;;;5.78;3.35;;;;;;;8.73;49.72;100007.53;4913402;29;20048;-54
2021/10/26 07:25:16;;;;;;;6.75;2.70;;;;;;;8.52;49.99;100005.41;4892528;29;20052;-57
2021/10/26 07:27:43;;;;;;;6.95;3.28;;;;;;;8.60;49.96;99995.72;4912223;29;20075;-55
2021/10/26 07:30:11;;;;;;;8.80;3.72;;;;;;;9.09;49.24;99993.75;4908319;29;20084;-54
2021/10/26 07:32:39;;;;;;;10.60;3.47;;;;;;;9.34;48.16;99994.88;4910328;29;20068;-52
2021/10/26 07:35:05;;;;;;;5.80;2.78;;;;;;;9.21;48.27;99993.44;4878920;29;20050;-54
2021/10/26 07:37:38;;;;;;;6.50;3.40;;;;;;;9.58;48.34;99993.41;4894578;29;20052;-53
2021/10/26 07:40:10;;;;;;;7.28;4.10;;;;;;;10.28;46.70;99988.97;4912575;29;20044;-55
2021/10/26 07:42:56;;;;;;;8.63;3.85;;;;;;;10.66;45.21;99974.84;4913965;29;20039;-55
2021/10/26 07:45:41;;;;;;;8.10;3.70;;;;;;;10.73;44.93;99993.72;4913513;29;20394;-54
2021/10/26 07:48:07;;;;;;;11.05;3.08;;;;;;;10.58;45.10;99992.41;4912934;29;20079;-53
2021/10/26 07:50:33;;;;;;;7.43;3.45;;;;;;;10.91;44.32;99981.00;4912826;29;20143;-53
2021/10/26 07:52:59;;;;;;;7.75;3.40;;;;;;;11.08;43.90;99995.25;4893797;29;20047;-54
2021/10/26 07:55:37;;;;;;;6.80;3.35;;;;;;;11.20;43.86;99987.06;4898779;29;20051;-53
2021/10/26 07:58:06;;;;;;;8.43;4.10;;;;;;;11.46;42.92;99981.84;4913001;29;20039;-51
2021/10/26 08:00:34;;;;;;;6.93;3.40;;;;;;;11.38;43.29;99970.81;4912937;29;20048;-53
2021/10/26 08:03:21;;;;;;;5.40;2.60;;;;;;;11.48;42.61;99961.81;4899873;29;20146;-54
2021/10/26 08:05:53;;;;;;;6.10;3.67;;;;;;;11.74;42.82;99966.16;4881399;29;20529;-53
2021/10/26 08:08:21;;;;;;;6.38;3.65;;;;;;;11.60;42.54;99950.13;4912944;29;20040;-51
2021/10/26 08:10:48;;;;;;;8.75;3.45;;;;;;;11.77;42.51;99960.84;4912296;29;20516;-51
2021/10/26 08:13:15;;;;;;;7.40;3.55;;;;;;;11.63;42.52;99930.03;4928272;29;20130;-53
2021/10/26 08:15:42;;;;;;;9.13;2.75;;;;;;;11.75;42.04;99965.25;4911890;29;20056;-56
2021/10/26 08:18:08;;;;;;;8.52;3.65;;;;;;;10.69;44.12;99950.50;4912582;29;20043;-53
2021/10/26 08:20:34;;;;;;;8.18;4.15;;;;;;;10.36;45.24;99961.03;4912565;29;20040;-53
2021/10/26 08:23:01;;;;;;;7.70;3.55;;;;;;;10.22;45.43;99955.34;4912443;29;20062;-56
2021/10/26 08:25:31;;;;;;;6.10;3.78;;;;;;;10.15;44.93;99959.81;4927418;29;20052;-53
2021/10/26 08:27:57;;;;;;;6.65;3.35;;;;;;;9.84;45.81;99955.53;4928177;29;20043;-53
2021/10/26 08:33:01;;;;;;;8.25;4.15;;;;;;;9.67;46.75;99959.44;4896389;29;20509;-55
2021/10/26 08:35:30;;;;;;;7.78;3.72;;;;;;;9.51;47.41;99957.28;4927628;29;20075;-55
2021/10/26 08:38:02;;;;;;;7.63;3.33;;;;;;;9.62;47.31;99956.09;4912254;29;20074;-52
2021/10/26 08:40:37;;;;;;;8.30;3.55;;;;;;;10.23;46.56;99957.06;4911729;29;20044;-54
2021/10/26 08:43:07;;;;;;;7.63;3.65;;;;;;;10.57;44.92;99947.34;4927849;29;20051;-57
2021/10/26 08:45:36;;;;;;;5.18;2.20;;;;;;;10.51;45.11;99944.13;4908900;29;20054;-56
2021/10/26 08:48:06;;;;;;;9.32;4.07;;;;;;;10.99;44.18;99954.75;4896701;29;20541;-56
2021/10/26 08:50:51;;;;;;;6.13;3.05;;;;;;;11.34;43.00;99964.03;4898679;29;20075;-54
2021/10/26 08:53:18;;;;;;;;;;;;;;;11.51;43.21;99943.50;4912592;29;20054;-53
2021/10/26 08:55:59;;;;;;;8.07;4.68;;;;;;;11.73;42.45;99925.38;4896009;29;19925;-55
2021/10/26 08:58:44;;;;;;;7.60;3.78;;;;;;;12.51;41.04;99920.78;4925358;29;20048;-54
2021/10/26 09:01:12;;;;;;;7.97;4.20;;;;;;;12.04;41.30;99907.75;4896477;29;20047;-54
2021/10/26 09:03:49;;;;;;;4.78;3.30;;;;;;;12.36;40.82;99913.50;4904160;29;20050;-52
2021/10/26 09:06:24;;;;;;;6.53;3.70;;;;;;;12.55;40.68;99925.81;4912074;29;20422;-53
2021/10/26 09:08:53;;;;;;;7.97;3.90;;;;;;;12.44;40.86;99914.09;4927598;29;20048;-51
2021/10/26 09:17:26;;;;;;;;;;;;;;;12.71;40.16;99913.03;4913763;29;20071;-54
2021/10/26 09:20:18;;;;;;;7.78;3.00;;;;;;;12.46;40.29;99920.94;4896136;29;19919;-53
2021/10/26 09:22:51;;;;;;;7.13;4.30;;;;;;;11.91;41.75;99901.28;4894647;29;20054;-52
2021/10/26 09:25:20;;;;;;;8.10;4.07;;;;;;;12.14;41.24;99909.09;4911754;29;20054;-52
2021/10/26 09:27:49;;;;;;;5.03;3.03;;;;;;;12.00;41.12;99887.91;4913005;29;20048;-52
2021/10/26 09:30:19;;;;;;;9.93;3.60;;;;;;;11.43;42.07;99889.06;4912913;29;20131;-56
2021/10/26 09:32:47;;;;;;;8.75;3.70;;;;;;;11.77;41.65;99885.31;4910960;29;20569;-55
2021/10/26 09:35:16;;;;;;;10.68;3.78;;;;;;;11.23;42.61;99878.50;4927817;29;20040;-54
2021/10/26 09:37:49;;;;;;;9.18;3.65;;;;;;;10.61;43.79;99890.94;4913126;29;20127;-54
2021/10/26 09:40:15;;;;;;;7.38;3.90;;;;;;;10.35;44.64;99885.69;4880317;29;20502;-54
2021/10/26 09:42:44;;;;;;;6.75;3.03;;;;;;;10.08;45.56;99874.31;4912880;29;20155;-52
2021/10/26 09:45:25;;;;;;;7.13;3.10;;;;;;;10.14;45.86;99877.59;4912849;29;20509;-49
2021/10/26 09:47:55;;;;;;;7.55;3.33;;;;;;;10.14;45.70;99872.41;4911742;29;20139;-52
2021/10/26 09:50:29;;;;;;;7.25;3.78;;;;;;;10.17;45.42;99861.94;4912769;29;20424;-53
2021/10/26 09:53:03;;;;;;;5.35;3.10;;;;;;;9.88;45.37;99863.66;4912889;29;20047;-54
2021/10/26 09:55:42;;;;;;;9.73;3.63;;;;;;;9.65;46.29;99848.72;4898769;29;20044;-55
2021/10/26 09:58:15;;;;;;;8.40;2.95;;;;;;;9.67;45.99;99847.81;4931017;29;20095;-52
2021/10/26 10:00:45;;;;;;;12.90;3.80;;;;;;;9.65;46.28;99851.31;4899103;29;20059;-55
2021/10/26 10:03:13;;;;;;;7.38;3.65;;;;;;;9.52;46.35;99848.22;4916120;29;20058;-55
2021/10/26 10:05:56;;;;;;;7.50;3.50;;;;;;;9.51;46.89;99838.75;4916192;29;20532;-51
2021/10/26 10:08:35;;;;;;;8.90;4.78;;;;;;;9.51;46.70;99830.09;4916143;29;20169;-50
2021/10/26 10:11:07;;;;;;;7.85;3.67;;;;;;;9.36;47.07;99823.59;4916283;29;20686;-56
2021/10/26 10:13:34;;;;;;;9.05;3.85;;;;;;;9.49;46.91;99832.72;4915872;29;20060;-52
2021/10/26 10:16:02;;;;;;;11.40;3.88;;;;;;;9.54;46.69;99817.88;4915743;29;20040;-54
2021/10/26 10:18:30;;;;;;;6.80;3.38;;;;;;;9.43;46.85;99834.63;4916329;29;20104;-53
2021/10/26 10:20:56;;;;;;;7.38;2.97;;;;;;;9.37;47.23;99830.44;4914799;29;20040;-52
2021/10/26 10:23:23;;;;;;;10.13;5.05;;;;;;;9.62;46.74;99822.88;4915956;29;20051;-53
2021/10/26 10:25:52;;;;;;;7.22;3.60;;;;;;;10.18;45.57;99816.88;4915951;29;20590;-53
2021/10/26 10:28:18;;;;;;;9.23;4.00;;;;;;;10.87;44.08;99810.34;4897908;29;20086;-55
2021/10/26 10:30:46;;;;;;;6.90;3.38;;;;;;;11.42;42.47;99824.03;4915729;29;20138;-54
2021/10/26 10:33:11;;;;;;;6.43;4.47;;;;;;;11.46;42.43;99810.03;4915355;29;20060;-55
2021/10/26 10:35:38;;;;;;;8.23;3.65;;;;;;;11.72;41.73;99807.28;4898351;29;20047;-53
2021/10/26 10:38:06;;;;;;;8.10;4.22;;;;;;;12.01;41.08;99800.19;4915465;29;20048;-53
2021/10/26 10:40:33;;;;;;;9.88;3.33;;;;;;;12.36;39.85;99790.97;4930142;29;20046;-53
2021/10/26 10:43:00;;;;;;;7.50;3.92;;;;;;;12.36;39.92;99797.03;4915713;29;20044;-55
2021/10/26 10:45:33;;;;;;;6.82;3.65;;;;;;;12.35;40.11;99786.69;4898639;29;20434;-52
2021/10/26 10:48:00;;;;;;;6.47;3.60;;;;;;;11.92;40.40;99774.47;4914317;29;20078;-54
2021/10/26 10:50:30;;;;;;;7.18;3.47;;;;;;;11.87;40.38;99788.53;4914930;29;20076;-55
2021/10/26 10:53:18;;;;;;;8.90;4.13;;;;;;;12.21;39.75;99774.19;4930174;29;20044;-53
2021/10/26 10:55:52;;;;;;;7.63;3.50;;;;;;;12.41;39.12;99783.81;4915007;29;20135;-52
2021/10/26 10:58:28;;;;;;;8.13;3.88;;;;;;;12.63;39.02;99772.44;4915115;29;20142;-52
2021/10/26 11:01:20;;;;;;;8.43;3.70;;;;;;;12.86;38.56;99771.50;4896285;29;20154;-51
2021/10/26 11:03:46;;;;;;;8.13;3.90;;;;;;;12.87;38.42;99768.00;4896202;29;20046;-56
2021/10/26 11:06:43;;;;;;;9.68;4.70;;;;;;;13.52;37.62;99769.50;4896372;29;20040;-50
2021/10/26 11:09:39;;;;;;;7.80;4.32;;;;;;;13.47;37.11;99761.88;4899515;29;20492;-52
2021/10/26 11:12:21;;;;;;;7.22;4.15;;;;;;;13.66;36.42;99772.34;4915106;29;20512;-56
2021/10/26 11:15:09;;;;;;;10.52;4.30;;;;;;;13.72;36.43;99769.44;4915133;29;20048;-52
2021/10/26 11:17:37;;;;;;;6.15;4.05;;;;;;;13.76;36.17;99737.06;4913515;29;20130;-54
2021/10/26 11:20:25;;;;;;;6.53;4.47;;;;;;;14.00;35.36;99755.94;4929041;29;20040;-53
2021/10/26 11:23:02;;;;;;;5.90;3.40;;;;;;;13.81;36.01;99762.97;4913395;29;20095;-56
2021/10/26 11:25:27;;;;;;;6.95;3.80;;;;;;;13.90;36.20;99739.84;4897442;29;20059;-51
2021/10/26 11:27:55;;;;;;;8.18;3.65;;;;;;;14.21;35.81;99739.25;4914462;29;20059;-53
2021/10/26 11:30:27;;;;;;;11.20;5.70;;;;;;;14.40;35.38;99774.06;4913616;29;20040;-53
2021/10/26 11:33:15;;;;;;;6.57;3.35;;;;;;;13.81;35.50;99747.28;4913265;29;20591;-53
2021/10/26 11:35:50;;;;;;;6.65;3.17;;;;;;;13.52;35.79;99754.69;4928967;29;20048;-53
2021/10/26 11:38:28;;;;;;;10.60;4.00;;;;;;;13.04;36.81;99742.00;4914345;29;20453;-53
2021/10/26 11:40:58;;;;;;;9.85;3.95;;;;;;;13.36;36.58;99758.03;4913275;29;20559;-52
2021/10/26 11:43:31;;;;;;;6.28;3.17;;;;;;;12.96;36.71;99746.72;4914288;29;20524;-54
2021/10/26 11:46:03;;;;;;;7.45;3.38;;;;;;;12.43;37.89;99764.59;4928671;29;20535;-52
2021/10/26 11:48:48;;;;;;;8.27;3.10;;;;;;;12.21;38.00;99748.97;4914399;29;20046;-52
2021/10/26 11:51:34;;;;;;;7.28;3.05;;;;;;;11.87;38.77;99738.19;4914414;29;20122;-54
2021/10/26 11:54:07;;;;;;;6.80;3.40;;;;;;;11.85;39.06;99750.41;4914543;29;20066;-55
2021/10/26 11:56:38;;;;;;;7.53;3.72;;;;;;;12.10;38.60;99747.69;4913989;29;20123;-53
2021/10/26 11:59:13;;;;;;;5.82;3.00;;;;;;;12.27;38.10;99738.31;4912924;29;20055;-52